Time;durP1;ratioP1;P1;durP2;ratioP2;P2;SDS_P1;SDS_P2;PMS_P1;PMS_P2;Temp;Humidity;BMP_temperature;BMP_pressure;BME280_temperature;BME280_humidity;BME280_pressure;Samples;Min_cycle;Max_cycle;Signal;HPM_P1;HPM_P2
2023/05/22 00:00:47;;;;;;;4.17;3.10;;;;;;;14.68;63.85;100315.39;1499197;86;22432;-85
2023/05/22 00:03:13;;;;;;;8.73;2.40;;;;;;;14.63;64.15;100318.56;1502642;86;21476;-84
2023/05/22 00:05:39;;;;;;;4.30;2.53;;;;;;;14.55;64.54;100309.80;1497309;86;21572;-87
2023/05/22 00:08:12;;;;;;;9.63;2.80;;;;;;;14.51;63.92;100315.13;1469742;86;21358;-85
2023/05/22 00:10:39;;;;;;;10.30;2.63;;;;;;;14.47;64.38;100323.12;1504355;86;21484;-86
2023/05/22 00:13:05;;;;;;;10.10;3.57;;;;;;;14.49;63.67;100311.81;1499644;86;21351;-85
2023/05/22 00:15:33;;;;;;;8.70;3.57;;;;;;;14.49;63.85;100318.47;1501488;86;22778;-86
2023/05/22 00:18:01;;;;;;;4.13;2.87;;;;;;;14.50;63.45;100314.78;1504441;86;21352;-85
2023/05/22 00:20:27;;;;;;;4.80;2.83;;;;;;;14.51;64.59;100320.46;1499748;86;21291;-85
2023/05/22 00:22:55;;;;;;;7.53;3.43;;;;;;;14.45;64.11;100312.16;1496584;86;21336;-85
2023/05/22 00:25:21;;;;;;;7.93;2.60;;;;;;;14.41;64.33;100318.00;1503215;86;21572;-84
2023/05/22 00:27:47;;;;;;;4.33;2.70;;;;;;;14.33;64.50;100312.75;1500282;86;22268;-83
2023/05/22 00:30:14;;;;;;;7.43;2.83;;;;;;;14.32;63.75;100323.88;1491538;86;21270;-79
2023/05/22 00:32:40;;;;;;;6.47;2.83;;;;;;;14.33;65.52;100317.56;1502974;86;21263;-80
2023/05/22 00:35:12;;;;;;;7.33;3.13;;;;;;;14.30;65.36;100313.07;1510801;86;21351;-80
2023/05/22 00:37:38;;;;;;;9.90;4.30;;;;;;;14.28;64.80;100311.11;1512453;85;21499;-83
2023/05/22 00:40:07;;;;;;;11.00;4.10;;;;;;;14.28;65.05;100303.12;1502334;86;21380;-81
2023/05/22 00:42:35;;;;;;;7.77;3.33;;;;;;;14.28;65.56;100306.60;1501730;86;22277;-84
2023/05/22 00:45:01;;;;;;;6.47;3.33;;;;;;;14.25;65.70;100306.13;1501455;86;21417;-82
2023/05/22 00:47:27;;;;;;;13.87;3.83;;;;;;;14.21;65.48;100310.95;1495943;86;21388;-83
2023/05/22 00:49:54;;;;;;;13.17;3.80;;;;;;;14.17;65.56;100312.31;1500786;86;21351;-84
2023/05/22 00:52:20;;;;;;;5.27;3.40;;;;;;;14.11;65.78;100310.35;1500601;86;22358;-79
2023/05/22 00:54:48;;;;;;;6.37;3.97;;;;;;;14.08;65.37;100308.86;1499143;86;21513;-83
2023/05/22 00:57:14;;;;;;;12.07;3.43;;;;;;;14.03;66.10;100313.87;1504805;86;22745;-83
2023/05/22 00:59:43;;;;;;;5.37;3.30;;;;;;;13.95;65.97;100309.43;1495576;86;21476;-84
2023/05/22 01:02:08;;;;;;;19.73;4.60;;;;;;;13.90;65.88;100313.09;1502860;86;21461;-83
2023/05/22 01:07:07;;;;;;;10.50;2.67;;;;;;;13.85;66.52;100308.79;1497352;85;27455;-83
2023/05/22 01:09:34;;;;;;;9.37;3.63;;;;;;;13.84;67.33;100307.14;1482180;86;21421;-83
2023/05/22 01:12:27;;;;;;;10.70;3.73;;;;;;;13.85;68.66;100306.13;1470712;87;21958;-83
2023/05/22 01:15:36;;;;;;;11.63;4.23;;;;;;;13.83;68.66;100302.80;1473175;86;22395;-81
2023/05/22 01:18:25;;;;;;;9.47;4.03;;;;;;;13.80;67.84;100302.32;1476365;87;21449;-84
2023/05/22 01:21:09;;;;;;;7.77;3.43;;;;;;;13.72;67.56;100292.53;1475068;87;22462;-82
2023/05/22 01:24:14;;;;;;;5.33;3.17;;;;;;;13.68;67.64;100307.18;1468756;86;22633;-84
2023/05/22 01:27:15;;;;;;;8.10;4.00;;;;;;;13.63;67.34;100301.53;1479793;86;21591;-84
2023/05/22 01:29:54;;;;;;;;;;;;;;;13.57;67.79;100300.89;1442070;86;21588;-83
2023/05/22 01:32:24;;;;;;;9.50;2.97;;;;;;;13.48;69.45;100307.55;1475763;87;20336;-83
2023/05/22 01:34:58;;;;;;;9.20;3.65;;;;;;;13.44;68.44;100305.42;1478067;86;21539;-82
2023/05/22 01:37:24;;;;;;;4.37;3.20;;;;;;;13.42;68.53;100302.09;1475364;87;21428;-84
2023/05/22 01:39:51;;;;;;;9.73;3.77;;;;;;;13.38;68.75;100308.25;1395609;88;21331;-84
2023/05/22 01:42:18;;;;;;;4.80;3.23;;;;;;;13.35;69.54;100309.92;1400457;88;21339;-83
2023/05/22 01:44:44;;;;;;;4.37;2.63;;;;;;;13.35;69.54;100309.92;1399973;88;22352;-86
2023/05/22 01:47:11;;;;;;;8.03;3.33;;;;;;;13.39;70.05;100313.89;1406568;88;21392;-80
2023/05/22 01:49:38;;;;;;;7.97;3.60;;;;;;;13.39;69.58;100305.91;1401313;88;21452;-83
2023/05/22 01:52:17;;;;;;;8.23;3.33;;;;;;;13.41;69.81;100311.08;1400289;89;21332;-83
2023/05/22 01:55:02;;;;;;;7.00;3.20;;;;;;;13.39;70.08;100308.57;1560158;86;21405;-82
2023/05/22 01:57:45;;;;;;;9.57;4.23;;;;;;;13.35;69.97;100310.39;1398352;89;21347;-86
2023/05/22 02:00:14;;;;;;;8.27;2.93;;;;;;;13.24;70.96;100304.92;1396724;89;21502;-85
2023/05/22 02:02:44;;;;;;;11.00;2.90;;;;;;;13.20;70.35;100306.23;1528857;87;21427;-83
2023/05/22 02:05:13;;;;;;;9.83;4.70;;;;;;;13.16;70.08;100299.61;1400718;88;21303;-85
2023/05/22 02:07:41;;;;;;;5.83;3.60;;;;;;;13.15;69.96;100301.44;1393998;90;21370;-84
2023/05/22 02:10:10;;;;;;;8.40;3.30;;;;;;;13.12;70.57;100298.27;1395787;88;21413;-83
2023/05/22 02:12:37;;;;;;;5.43;3.57;;;;;;;13.15;70.09;100308.55;1450835;88;21354;-85
2023/05/22 02:15:07;;;;;;;9.73;3.20;;;;;;;13.16;70.17;100301.76;1471616;88;22491;-85
2023/05/22 02:17:39;;;;;;;7.10;3.03;;;;;;;13.19;70.49;100296.11;1466724;86;21564;-84
2023/05/22 02:20:13;;;;;;;8.20;3.20;;;;;;;13.22;70.18;100299.75;1475138;88;21567;-83
2023/05/22 02:22:46;;;;;;;10.23;3.10;;;;;;;13.20;70.54;100300.92;1467395;88;21635;-85
2023/05/22 02:25:13;;;;;;;5.07;2.97;;;;;;;13.19;70.11;100299.27;1470455;88;21599;-82
2023/05/22 02:27:44;;;;;;;6.27;3.10;;;;;;;13.17;69.59;100303.91;1400749;88;21363;-86
2023/05/22 02:30:14;;;;;;;5.87;3.20;;;;;;;13.15;69.36;100303.23;1393693;88;21355;-85
2023/05/22 02:32:41;;;;;;;4.60;3.13;;;;;;;13.12;69.65;100306.23;1555105;86;21451;-81
2023/05/22 02:35:08;;;;;;;11.17;3.70;;;;;;;13.09;69.62;100300.78;1399092;88;21471;-82
2023/05/22 02:37:37;;;;;;;11.53;3.10;;;;;;;13.03;70.00;100302.75;1552061;86;22177;-84
2023/05/22 02:40:08;;;;;;;5.10;2.83;;;;;;;13.00;70.43;100301.76;1513315;89;21483;-83
2023/05/22 02:42:35;;;;;;;6.57;3.07;;;;;;;12.99;70.59;100300.11;1484306;88;21346;-83
2023/05/22 02:45:01;;;;;;;7.40;3.07;;;;;;;13.00;70.35;100303.91;1534097;88;21509;-82
2023/05/22 02:47:27;;;;;;;5.40;2.83;;;;;;;12.99;70.36;100302.27;1398844;88;21400;-86
2023/05/22 02:49:54;;;;;;;12.67;3.57;;;;;;;12.96;70.57;100301.77;1398444;88;21326;-84
2023/05/22 02:52:21;;;;;;;7.20;3.30;;;;;;;12.93;70.16;100301.59;1397731;88;21312;-83
2023/05/22 02:54:47;;;;;;;10.67;3.70;;;;;;;12.92;70.18;100306.59;1380614;89;21361;-82
2023/05/22 02:57:13;;;;;;;8.10;2.93;;;;;;;12.94;70.07;100307.73;1395760;89;21494;-82
2023/05/22 02:59:39;;;;;;;9.20;3.10;;;;;;;12.89;71.09;100306.92;1402502;88;21473;-80
2023/05/22 03:02:05;;;;;;;8.93;3.83;;;;;;;12.83;72.03;100304.43;1396758;88;21361;-83
2023/05/22 03:04:31;;;;;;;9.67;3.27;;;;;;;12.81;71.12;100302.93;1392775;88;21457;-83
2023/05/22 03:06:58;;;;;;;8.97;3.57;;;;;;;12.82;71.69;100295.28;1403958;88;22353;-79
2023/05/22 03:09:24;;;;;;;5.60;2.80;;;;;;;12.83;71.47;100300.92;1392663;89;21325;-82
2023/05/22 03:11:50;;;;;;;4.67;2.83;;;;;;;12.87;71.45;100302.27;1396396;89;21287;-82
2023/05/22 03:14:17;;;;;;;6.10;3.33;;;;;;;12.90;71.12;100300.60;1397451;88;21273;-82
2023/05/22 03:16:47;;;;;;;10.07;3.00;;;;;;;12.94;71.04;100301.09;1403913;88;22251;-87
2023/05/22 03:19:16;;;;;;;9.80;4.23;;;;;;;12.95;70.89;100299.62;1554696;86;21413;-86
2023/05/22 03:21:43;;;;;;;5.37;3.27;;;;;;;12.96;70.68;100301.27;1489581;88;21356;-84
2023/05/22 03:24:11;;;;;;;9.37;3.27;;;;;;;12.98;70.79;100307.25;1391646;88;22258;-85
2023/05/22 03:26:38;;;;;;;7.93;3.03;;;;;;;12.98;70.70;100304.59;1393628;88;21335;-84
2023/05/22 03:29:04;;;;;;;9.93;2.90;;;;;;;12.99;70.51;100302.27;1391857;89;21434;-82
2023/05/22 03:31:32;;;;;;;11.70;4.63;;;;;;;13.00;70.68;100308.39;1397935;88;22474;-83
2023/05/22 03:33:59;;;;;;;9.07;2.77;;;;;;;13.02;70.55;100305.91;1515074;86;21355;-82
2023/05/22 03:36:28;;;;;;;11.53;3.70;;;;;;;13.07;70.21;100309.41;1554509;86;22091;-83
2023/05/22 03:38:54;;;;;;;11.67;3.23;;;;;;;13.13;70.33;100310.57;1532854;86;22191;-83
2023/05/22 03:41:21;;;;;;;5.23;3.10;;;;;;;13.18;70.01;100310.91;1474714;88;21488;-80
2023/05/22 03:43:47;;;;;;;10.37;3.70;;;;;;;13.21;69.75;100310.57;1453528;88;21435;-84
2023/05/22 03:46:13;;;;;;;5.97;3.27;;;;;;;13.26;69.62;100317.55;1476590;86;22333;-87
2023/05/22 03:48:40;;;;;;;4.53;2.73;;;;;;;13.32;69.38;100316.88;1472774;86;21501;-87
2023/05/22 03:51:08;;;;;;;10.37;3.27;;;;;;;13.35;69.39;100318.37;1453182;88;22425;-87
2023/05/22 03:53:34;;;;;;;6.13;3.03;;;;;;;13.37;69.53;100319.04;1465055;88;21486;-85
2023/05/22 03:56:00;;;;;;;8.07;3.23;;;;;;;13.40;69.27;100323.52;1471671;86;21495;-86
2023/05/22 03:58:26;;;;;;;6.83;3.33;;;;;;;13.43;68.84;100328.48;1475505;86;21443;-86
2023/05/22 04:00:57;;;;;;;6.40;3.30;;;;;;;13.45;69.26;100323.84;1471081;88;22323;-88
2023/05/22 04:03:23;;;;;;;7.60;4.00;;;;;;;13.48;69.17;100325.34;1475259;88;21501;-87
2023/05/22 04:05:50;;;;;;;6.70;3.03;;;;;;;13.46;69.06;100328.16;1474828;86;21444;-85
2023/05/22 04:08:17;;;;;;;12.17;3.50;;;;;;;13.48;68.87;100326.16;1471427;88;21385;-87
2023/05/22 04:10:45;;;;;;;8.43;3.37;;;;;;;13.53;68.62;100325.67;1457521;88;21377;-89
2023/05/22 04:13:12;;;;;;;12.80;3.23;;;;;;;13.55;68.59;100327.64;1468141;86;21456;-89
2023/05/22 04:15:41;;;;;;;4.57;2.40;;;;;;;13.58;68.95;100335.78;1386793;90;21324;-88
2023/05/22 04:18:09;;;;;;;7.78;3.15;;;;;;;13.66;68.63;100335.77;1384182;90;22292;-88
2023/05/22 04:20:35;;;;;;;6.30;2.90;;;;;;;13.72;68.50;100336.41;1400300;88;21315;-89
2023/05/22 04:23:01;;;;;;;6.40;3.33;;;;;;;13.81;68.15;100335.41;1395273;88;21333;-88
2023/05/22 04:25:27;;;;;;;7.47;3.73;;;;;;;13.88;67.61;100333.72;1388793;88;21391;-88
2023/05/22 04:27:53;;;;;;;7.27;3.10;;;;;;;13.97;67.68;100326.53;1391606;88;21391;-90
2023/05/22 04:30:24;;;;;;;5.23;2.83;;;;;;;14.02;67.35;100322.86;1431838;87;22141;-86
2023/05/22 04:32:52;;;;;;;6.20;3.63;;;;;;;14.10;66.87;100329.99;1470160;88;21501;-84
2023/05/22 04:35:18;;;;;;;8.80;3.47;;;;;;;14.18;66.58;100332.59;1472204;86;22314;-88
2023/05/22 04:37:44;;;;;;;5.43;3.67;;;;;;;14.28;66.68;100329.73;1471736;88;21484;-88
2023/05/22 04:40:13;;;;;;;10.70;3.37;;;;;;;14.33;65.49;100332.20;1476156;88;21459;-89
2023/05/22 04:42:44;;;;;;;10.87;5.03;;;;;;;14.38;64.83;100323.17;1475872;88;21554;-88
2023/05/22 04:45:12;;;;;;;4.83;3.00;;;;;;;14.48;65.18;100319.48;1462694;88;21904;-89
2023/05/22 04:47:41;;;;;;;11.20;3.30;;;;;;;14.56;64.24;100321.63;1475373;88;21593;-86
2023/05/22 04:50:08;;;;;;;10.73;3.37;;;;;;;14.66;65.01;100325.37;1474061;88;21539;-86
2023/05/22 04:52:34;;;;;;;8.73;4.23;;;;;;;14.73;64.07;100326.34;1471514;88;22226;-88
2023/05/22 04:55:01;;;;;;;6.30;3.53;;;;;;;14.79;63.98;100328.81;1477561;88;21435;-88
2023/05/22 04:57:28;;;;;;;12.97;4.27;;;;;;;14.89;64.27;100329.38;1474596;88;21502;-88
2023/05/22 04:59:56;;;;;;;6.67;3.83;;;;;;;14.98;63.52;100325.64;1471614;88;21428;-88
2023/05/22 05:02:22;;;;;;;8.00;3.33;;;;;;;15.11;63.85;100323.72;1475111;88;22596;-89
2023/05/22 05:04:48;;;;;;;10.97;4.10;;;;;;;15.21;63.23;100328.28;1472618;88;21429;-88
2023/05/22 05:07:17;;;;;;;6.57;3.47;;;;;;;15.31;62.96;100336.05;1473639;88;21525;-89
2023/05/22 05:09:53;;;;;;;9.80;3.27;;;;;;;15.43;63.10;100328.44;1472245;88;21614;-89
2023/05/22 05:12:19;;;;;;;13.63;3.13;;;;;;;15.55;62.83;100329.64;1477417;88;21665;-88
2023/05/22 05:14:45;;;;;;;9.60;3.30;;;;;;;15.62;61.15;100329.22;1477252;88;21392;-88
2023/05/22 05:17:12;;;;;;;13.83;4.33;;;;;;;15.68;61.02;100325.88;1474986;88;21436;-87
2023/05/22 05:19:40;;;;;;;6.87;3.83;;;;;;;15.78;61.45;100330.92;1475799;88;21480;-87
2023/05/22 05:22:06;;;;;;;9.53;3.70;;;;;;;15.94;61.58;100336.57;1473304;88;21539;-86
2023/05/22 05:24:33;;;;;;;4.90;3.10;;;;;;;16.05;60.79;100330.77;1476229;88;21577;-88
2023/05/22 05:27:00;;;;;;;16.87;3.80;;;;;;;16.15;58.31;100329.16;1470964;88;22316;-87
2023/05/22 05:29:28;;;;;;;8.33;3.40;;;;;;;16.25;58.79;100328.34;1472726;88;21471;-90
2023/05/22 05:31:54;;;;;;;10.57;4.03;;;;;;;16.36;58.96;100337.22;1477063;88;21459;-85
2023/05/22 05:34:20;;;;;;;4.77;3.10;;;;;;;16.45;56.89;100337.93;1472952;88;21765;-86
2023/05/22 05:36:46;;;;;;;6.07;3.10;;;;;;;16.58;58.14;100339.94;1474746;88;21451;-89
2023/05/22 05:39:12;;;;;;;15.07;4.53;;;;;;;16.64;56.85;100339.18;1473557;88;21680;-87
2023/05/22 05:41:38;;;;;;;14.27;3.10;;;;;;;16.75;57.42;100329.84;1474544;88;21465;-87
2023/05/22 05:44:04;;;;;;;10.93;3.80;;;;;;;16.84;57.04;100336.23;1476124;88;21613;-90
2023/05/22 05:46:31;;;;;;;7.07;3.03;;;;;;;16.97;57.33;100344.88;1474680;88;21473;-89
2023/05/22 05:48:57;;;;;;;7.73;3.53;;;;;;;17.11;56.86;100334.62;1474062;88;21591;-90
2023/05/22 05:51:25;;;;;;;21.03;3.40;;;;;;;17.24;55.87;100338.45;1455445;88;21532;-89
2023/05/22 05:53:52;;;;;;;12.63;3.80;;;;;;;17.40;56.25;100336.80;1478785;88;21429;-89
2023/05/22 05:56:20;;;;;;;6.03;3.67;;;;;;;17.48;55.43;100332.65;1456939;88;21502;-87
2023/05/22 05:58:46;;;;;;;6.17;3.23;;;;;;;17.63;55.48;100329.05;1470652;88;21465;-88
2023/05/22 06:01:13;;;;;;;9.03;4.10;;;;;;;17.64;53.13;100322.17;1474737;88;21687;-90
2023/05/22 06:03:39;;;;;;;9.00;3.83;;;;;;;17.75;54.20;100323.45;1473334;88;21532;-90
2023/05/22 06:06:06;;;;;;;6.73;3.80;;;;;;;17.87;53.94;100319.77;1473478;88;21489;-90
2023/05/22 06:08:33;;;;;;;9.57;4.30;;;;;;;17.95;53.34;100321.77;1478282;88;21495;-86
2023/05/22 06:11:02;;;;;;;6.67;3.33;;;;;;;18.08;53.24;100320.99;1477156;88;21517;-86
2023/05/22 06:13:28;;;;;;;8.73;3.93;;;;;;;18.22;53.94;100325.37;1475451;88;21472;-90
2023/05/22 06:15:54;;;;;;;7.43;3.53;;;;;;;18.35;52.43;100319.75;1457356;88;21509;-88
2023/05/22 06:18:24;;;;;;;4.57;3.53;;;;;;;18.46;52.34;100317.31;1473989;88;22383;-86
2023/05/22 06:20:52;;;;;;;6.85;4.10;;;;;;;18.52;51.29;100314.86;1475700;88;21673;-87
2023/05/22 06:23:18;;;;;;;5.30;3.47;;;;;;;18.61;50.46;100313.63;1397630;88;21452;-87
2023/05/22 06:25:45;;;;;;;10.27;3.43;;;;;;;18.70;50.58;100307.05;1398917;88;21678;-90
2023/05/22 06:28:11;;;;;;;9.37;3.93;;;;;;;18.84;50.78;100308.75;1398734;88;21422;-92
2023/05/22 06:30:39;;;;;;;15.37;4.10;;;;;;;19.00;50.91;100310.74;1402391;88;21517;-86
2023/05/22 06:40:14;;;;;;;12.05;3.80;;;;;;;19.45;49.94;100306.89;1474688;88;22124;-90
2023/05/22 06:42:40;;;;;;;11.30;3.77;;;;;;;19.62;50.19;100309.44;1479202;88;21749;-87
2023/05/22 06:45:07;;;;;;;7.53;3.55;;;;;;;19.77;50.29;100304.70;1472361;88;21475;-90
2023/05/22 06:47:33;;;;;;;12.20;3.90;;;;;;;19.93;50.04;100305.27;1476173;88;21429;-87
2023/05/22 06:49:59;;;;;;;8.73;3.02;;;;;;;19.98;48.97;100312.18;1466539;88;21510;-90
2023/05/22 06:52:25;;;;;;;7.37;3.87;;;;;;;20.01;47.79;100310.41;1481039;88;21443;-85
2023/05/22 06:54:52;;;;;;;8.85;4.20;;;;;;;20.12;47.59;100314.30;1472826;88;21400;-90
2023/05/22 06:57:19;;;;;;;7.83;3.17;;;;;;;20.13;47.43;100305.19;1473914;88;21552;-85
2023/05/22 06:59:46;;;;;;;11.67;3.83;;;;;;;20.25;46.74;100313.73;1476859;88;21444;-89
2023/05/22 07:06:12;;;;;;;10.53;3.80;;;;;;;20.44;47.06;100301.74;1493504;88;21605;-87
2023/05/22 07:08:40;;;;;;;12.07;4.12;;;;;;;20.53;46.67;100307.19;1479544;88;22427;-89
2023/05/22 07:11:07;;;;;;;15.08;3.55;;;;;;;20.65;46.79;100313.52;1480080;88;21606;-90
2023/05/22 07:13:33;;;;;;;10.00;3.75;;;;;;;20.75;45.89;100312.25;1401533;88;21407;-86
2023/05/22 07:16:00;;;;;;;14.23;3.65;;;;;;;20.88;46.46;100302.72;1403679;88;22365;-87
2023/05/22 07:18:26;;;;;;;7.50;3.22;;;;;;;20.99;45.76;100307.40;1561511;88;21444;-88
2023/05/22 07:20:52;;;;;;;6.53;3.92;;;;;;;21.11;45.88;100302.95;1404505;88;21347;-88
2023/05/22 07:23:18;;;;;;;22.35;5.78;;;;;;;21.19;44.25;100308.05;1403806;88;22332;-89
2023/05/22 07:25:45;;;;;;;10.88;4.15;;;;;;;21.29;45.07;100304.89;1404005;88;21392;-86
2023/05/22 07:28:11;;;;;;;9.80;5.00;;;;;;;21.38;44.50;100298.73;1422594;88;21362;-86
2023/05/22 07:30:38;;;;;;;5.53;3.85;;;;;;;21.42;44.95;100299.92;1475338;88;21443;-86
2023/05/22 07:33:05;;;;;;;7.67;3.75;;;;;;;21.56;44.39;100293.36;1485744;85;21555;-84
2023/05/22 07:35:31;;;;;;;10.98;3.45;;;;;;;21.69;44.34;100292.91;1466520;86;21600;-80
2023/05/22 07:37:57;;;;;;;12.25;3.90;;;;;;;21.79;44.78;100293.22;1485684;85;21428;-84
2023/05/22 07:40:23;;;;;;;7.58;3.72;;;;;;;21.88;44.34;100293.22;1474979;88;21451;-89
2023/05/22 07:42:50;;;;;;;6.67;3.65;;;;;;;21.89;43.52;100293.50;1483051;88;22308;-89
2023/05/22 07:45:16;;;;;;;10.28;4.05;;;;;;;21.95;43.90;100295.32;1462699;88;21480;-89
2023/05/22 07:47:42;;;;;;;4.85;3.83;;;;;;;22.07;43.61;100294.03;1479774;88;21634;-90
2023/05/22 07:50:16;;;;;;;8.95;4.37;;;;;;;22.25;44.51;100288.63;1461210;88;21399;-89
2023/05/22 07:52:46;;;;;;;8.75;4.22;;;;;;;22.37;44.04;100286.52;1478569;88;21539;-90
2023/05/22 07:55:20;;;;;;;12.45;3.90;;;;;;;22.46;43.44;100283.79;1479151;88;21631;-89
2023/05/22 07:57:51;;;;;;;7.35;3.77;;;;;;;22.71;43.22;100283.63;1478896;88;22427;-89
2023/05/22 08:00:19;;;;;;;6.78;4.10;;;;;;;22.71;43.22;100283.63;1480455;88;21599;-89
2023/05/22 08:02:47;;;;;;;10.93;4.42;;;;;;;22.87;43.12;100285.67;1481148;88;21621;-86
2023/05/22 08:05:13;;;;;;;12.75;3.27;;;;;;;22.94;42.19;100280.16;1461734;88;22433;-89
2023/05/22 08:07:40;;;;;;;8.28;3.65;;;;;;;22.96;41.78;100287.54;1478482;88;21665;-89
2023/05/22 08:10:13;;;;;;;5.50;3.45;;;;;;;23.08;41.78;100290.25;1478633;88;22444;-88
2023/05/22 08:12:40;;;;;;;5.72;3.08;;;;;;;23.11;40.65;100281.68;1480457;88;22271;-89
2023/05/22 08:15:08;;;;;;;10.23;3.47;;;;;;;23.23;41.53;100286.55;1480121;88;21677;-87
2023/05/22 08:17:34;;;;;;;9.10;4.12;;;;;;;23.30;40.17;100279.67;1479143;88;21643;-90
2023/05/22 08:20:00;;;;;;;10.55;3.80;;;;;;;23.40;40.57;100280.73;1481933;88;22598;-88
2023/05/22 08:22:29;;;;;;;10.18;4.33;;;;;;;23.49;39.51;100280.38;1481447;88;21473;-88
2023/05/22 08:24:56;;;;;;;10.78;3.77;;;;;;;23.46;39.23;100283.56;1480326;88;21495;-88
2023/05/22 08:27:22;;;;;;;8.30;3.80;;;;;;;23.60;39.56;100289.00;1479359;88;21457;-88
2023/05/22 08:29:50;;;;;;;12.03;3.70;;;;;;;23.74;39.22;100283.67;1480754;88;22166;-91
2023/05/22 08:32:17;;;;;;;8.85;3.45;;;;;;;23.88;39.01;100282.89;1485162;88;22389;-86
2023/05/22 08:34:44;;;;;;;10.80;3.47;;;;;;;23.93;38.59;100282.15;1481792;88;21465;-89
2023/05/22 08:37:12;;;;;;;4.92;3.60;;;;;;;24.02;38.35;100285.58;1477839;88;21429;-88
2023/05/22 08:39:39;;;;;;;5.12;3.12;;;;;;;24.10;38.82;100282.50;1483325;88;21532;-88
2023/05/22 08:42:05;;;;;;;12.95;2.90;;;;;;;23.99;38.04;100273.08;1480708;88;22292;-88
2023/05/22 08:44:32;;;;;;;11.63;4.25;;;;;;;24.03;38.33;100272.91;1477996;88;21503;-91
2023/05/22 08:47:00;;;;;;;13.30;5.30;;;;;;;24.18;38.31;100269.14;1478209;88;21531;-91
2023/05/22 08:49:26;;;;;;;10.08;4.58;;;;;;;24.38;38.25;100269.24;1479250;88;21510;-87
2023/05/22 08:52:01;;;;;;;12.88;4.10;;;;;;;24.56;38.71;100267.70;1481304;88;22367;-92
2023/05/22 08:54:30;;;;;;;6.00;3.60;;;;;;;24.61;36.41;100267.79;1481175;88;22464;-88
2023/05/22 08:56:57;;;;;;;10.28;3.87;;;;;;;24.63;37.88;100262.12;1461268;88;21531;-89
2023/05/22 08:59:23;;;;;;;6.30;2.90;;;;;;;24.79;37.87;100253.20;1478594;88;21487;-89
2023/05/22 09:01:52;;;;;;;12.90;3.92;;;;;;;24.95;37.44;100254.28;1480877;88;22533;-91
2023/05/22 09:04:22;;;;;;;7.40;4.03;;;;;;;25.10;37.21;100252.34;1462278;88;21421;-87
2023/05/22 09:06:49;;;;;;;10.93;3.98;;;;;;;25.23;37.81;100252.01;1477952;88;21419;-89
2023/05/22 09:09:15;;;;;;;7.70;3.92;;;;;;;25.37;37.48;100255.19;1464682;88;21436;-86
2023/05/22 09:11:41;;;;;;;4.12;3.30;;;;;;;25.52;37.67;100250.00;1480363;88;21450;-88
2023/05/22 09:14:09;;;;;;;7.87;3.90;;;;;;;25.68;37.60;100248.29;1482814;88;21723;-89
2023/05/22 09:16:48;;;;;;;13.08;3.87;;;;;;;25.81;36.60;100249.82;1481352;88;22323;-89
2023/05/22 09:19:14;;;;;;;6.45;3.35;;;;;;;25.86;36.13;100255.31;1479050;88;22533;-91
2023/05/22 09:21:43;;;;;;;10.48;3.47;;;;;;;25.90;36.29;100250.23;1478762;88;21443;-89
2023/05/22 09:24:10;;;;;;;8.95;3.10;;;;;;;25.92;36.92;100251.58;1482706;88;21420;-88
2023/05/22 09:26:39;;;;;;;9.98;3.30;;;;;;;26.04;36.81;100246.87;1485044;88;22713;-90
2023/05/22 09:29:06;;;;;;;5.85;3.17;;;;;;;26.08;35.01;100242.56;1478043;88;21487;-87
2023/05/22 09:31:47;;;;;;;10.70;3.60;;;;;;;26.09;36.08;100236.59;1477582;88;21584;-90
2023/05/22 09:34:16;;;;;;;6.37;4.08;;;;;;;26.19;36.76;100234.55;1482930;88;21473;-89
2023/05/22 09:36:45;;;;;;;8.48;3.22;;;;;;;26.29;36.65;100229.20;1483775;88;21480;-86
2023/05/22 09:39:11;;;;;;;14.00;4.33;;;;;;;26.36;35.42;100224.41;1483690;88;21495;-89
2023/05/22 09:41:39;;;;;;;7.05;3.62;;;;;;;26.32;35.80;100221.36;1479387;88;21406;-90
2023/05/22 09:44:13;;;;;;;6.60;3.08;;;;;;;26.32;35.39;100212.41;1482931;88;21605;-89
2023/05/22 09:46:45;;;;;;;10.58;3.42;;;;;;;26.24;33.79;100221.01;1482202;88;21509;-89
2023/05/22 09:49:11;;;;;;;14.20;3.90;;;;;;;25.88;35.16;100221.46;1401874;88;21562;-90
2023/05/22 09:51:40;;;;;;;6.60;3.20;;;;;;;25.82;36.41;100220.28;1466488;88;21450;-90
2023/05/22 09:54:08;;;;;;;10.10;3.40;;;;;;;25.84;35.85;100222.23;1480363;88;21472;-89
2023/05/22 09:56:39;;;;;;;11.75;3.72;;;;;;;26.02;36.87;100221.89;1481947;88;21495;-89
2023/05/22 09:59:08;;;;;;;8.55;3.95;;;;;;;26.23;36.78;100220.20;1483460;88;21502;-89
2023/05/22 10:01:37;;;;;;;8.13;3.58;;;;;;;26.28;35.37;100214.02;1479036;88;21547;-90
2023/05/22 10:04:05;;;;;;;8.30;4.70;;;;;;;26.46;35.12;100215.53;1479173;88;22292;-91
2023/05/22 10:06:33;;;;;;;7.17;3.83;;;;;;;26.63;35.31;100214.08;1481861;88;21635;-91
2023/05/22 10:09:06;;;;;;;8.48;3.20;;;;;;;26.74;35.08;100207.11;1479417;88;21424;-89
2023/05/22 10:11:34;;;;;;;6.90;3.35;;;;;;;26.83;35.40;100212.06;1479417;88;22991;-89
2023/05/22 10:14:03;;;;;;;5.03;3.55;;;;;;;26.77;34.51;100204.42;1472963;88;21599;-92
2023/05/22 10:16:32;;;;;;;6.65;3.72;;;;;;;26.91;35.14;100206.97;1476555;88;21532;-90
2023/05/22 10:19:01;;;;;;;8.35;4.45;;;;;;;26.95;33.49;100201.28;1470724;88;22440;-91
2023/05/22 10:21:30;;;;;;;8.85;3.83;;;;;;;27.10;34.98;100194.31;1472132;88;21502;-91
2023/05/22 10:24:00;;;;;;;10.03;3.10;;;;;;;27.22;35.07;100199.05;1396235;88;21526;-88
2023/05/22 10:26:28;;;;;;;14.35;3.80;;;;;;;26.97;33.73;100200.48;1465317;88;22702;-91
2023/05/22 10:29:40;;;;;;;;;;;;;;;;;;;;;
2023/05/22 10:32:04;;;;;;;6.70;3.42;;;;;;;27.13;34.79;100191.91;1438296;87;21375;-92
2023/05/22 10:34:48;;;;;;;11.88;3.77;;;;;;;27.35;35.43;100193.66;1487775;87;21447;-90
2023/05/22 10:37:26;;;;;;;7.37;3.60;;;;;;;27.51;34.97;100193.20;1488053;87;21665;-90
2023/05/22 10:40:04;;;;;;;11.30;4.35;;;;;;;27.70;34.84;100186.19;1487037;87;21767;-89
2023/05/22 10:42:31;;;;;;;9.98;3.45;;;;;;;27.84;34.45;100187.34;1467696;87;21455;-87
2023/05/22 10:45:00;;;;;;;5.20;2.77;;;;;;;28.00;34.53;100184.69;1456355;87;21624;-88
2023/05/22 10:47:26;;;;;;;6.50;3.20;;;;;;;28.01;33.47;100183.59;1490196;87;21462;-90
2023/05/22 10:50:10;;;;;;;14.40;3.90;;;;;;;28.01;33.91;100180.88;1486691;87;21691;-91
2023/05/22 10:52:36;;;;;;;94.40;8.10;;;;;;;28.00;33.76;100179.25;1484487;87;23004;-82
2023/05/22 10:55:08;;;;;;;11.95;3.58;;;;;;;28.02;33.23;100176.50;1487987;87;21521;-89
2023/05/22 10:57:37;;;;;;;9.53;3.37;;;;;;;28.13;32.59;100175.44;1496059;87;23007;-89
2023/05/22 11:00:12;;;;;;;10.80;2.67;;;;;;;28.30;32.33;100176.55;1407196;87;21507;-91
2023/05/22 11:02:42;;;;;;;5.28;3.00;;;;;;;28.39;33.02;100171.92;1407531;89;21515;-92
2023/05/22 11:05:25;;;;;;;6.05;3.77;;;;;;;28.52;33.28;100172.78;1407192;87;21367;-88
2023/05/22 11:07:51;;;;;;;10.50;3.40;;;;;;;28.62;33.48;100159.14;1567932;87;21507;-91
2023/05/22 11:10:52;;;;;;;5.87;3.15;;;;;;;28.77;32.80;100156.42;1573994;87;21437;-89
2023/05/22 11:13:18;;;;;;;11.35;4.08;;;;;;;28.92;32.36;100149.31;1407732;89;21418;-90
2023/05/22 11:15:45;;;;;;;6.42;2.92;;;;;;;28.74;32.32;100150.17;1410707;87;21426;-91
2023/05/22 11:18:13;;;;;;;9.00;3.17;;;;;;;28.66;32.02;100139.02;1409807;87;22231;-89
2023/05/22 11:20:39;;;;;;;9.68;2.98;;;;;;;28.74;32.54;100144.72;1409174;87;21503;-88
2023/05/22 11:23:09;;;;;;;9.08;3.35;;;;;;;28.81;33.00;100142.26;1526253;87;21433;-91
2023/05/22 11:25:37;;;;;;;6.30;3.25;;;;;;;28.84;32.98;100137.62;1464512;87;21580;-90
2023/05/22 11:28:05;;;;;;;4.40;3.27;;;;;;;28.93;32.14;100142.21;1490887;87;21580;-90
2023/05/22 11:30:32;;;;;;;7.92;3.42;;;;;;;29.08;32.03;100140.02;1437374;87;21528;-86
2023/05/22 11:33:01;;;;;;;9.98;2.98;;;;;;;28.93;30.76;100137.31;1465263;87;21551;-88
2023/05/22 11:35:27;;;;;;;6.60;4.42;;;;;;;28.82;31.28;100131.07;1465850;87;21654;-84
2023/05/22 11:37:55;;;;;;;10.93;3.45;;;;;;;28.73;29.85;100127.28;1488246;87;21425;-90
2023/05/22 11:40:24;;;;;;;7.08;2.85;;;;;;;28.82;31.83;100123.45;1409265;87;21374;-86
2023/05/22 11:42:52;;;;;;;4.55;3.02;;;;;;;28.99;31.45;100128.84;1444664;87;21692;-87
2023/05/22 11:45:20;;;;;;;4.80;2.92;;;;;;;29.15;32.25;100116.03;1488037;87;22416;-87